Time;durP1;ratioP1;P1;durP2;ratioP2;P2;SDS_P1;SDS_P2;PMS_P1;PMS_P2;Temp;Humidity;BMP_temperature;BMP_pressure;BME280_temperature;BME280_humidity;BME280_pressure;Samples;Min_cycle;Max_cycle;Signal;HPM_P1;HPM_P2
2022/08/01 00:03:54;;;;;;;;;;;;;;;23.24;44.83;100101.78;20536907;28;98646;-76
2022/08/01 00:13:56;;;;;;;;;;;;;;;23.24;44.66;100104.41;20542252;28;98485;-75
2022/08/01 00:23:56;;;;;;;;;;;;;;;23.23;44.12;100096.59;20543085;28;98194;-76
2022/08/01 00:33:56;;;;;;;;;;;;;;;23.23;43.82;100084.25;20531925;28;98552;-75
2022/08/01 00:43:56;;;;;;;;;;;;;;;23.22;43.53;100079.94;20533219;28;98171;-75
2022/08/01 00:53:57;;;;;;;;;;;;;;;23.21;43.48;100080.91;20544600;28;100588;-76
2022/08/01 01:03:57;;;;;;;;;;;;;;;23.21;43.29;100080.06;20530959;28;101228;-74
2022/08/01 01:14:01;;;;;;;;;;;;;;;23.17;43.22;100077.69;20539879;28;101300;-74
2022/08/01 01:24:08;;;;;;;;;;;;;;;23.16;43.05;100073.38;20532010;28;98844;-74
2022/08/01 01:34:09;;;;;;;;;;;;;;;23.14;43.37;100077.13;20528850;28;102049;-74
2022/08/01 01:44:10;;;;;;;;;;;;;;;23.11;43.43;100072.94;20526371;28;98526;-75
2022/08/01 01:54:10;;;;;;;;;;;;;;;23.08;43.35;100075.84;20543121;28;99240;-74
2022/08/01 02:04:11;;;;;;;;;;;;;;;23.09;43.51;100066.13;20541454;28;98490;-76
2022/08/01 02:14:12;;;;;;;;;;;;;;;23.07;43.74;100057.50;20542665;28;100750;-75
2022/08/01 02:24:19;;;;;;;;;;;;;;;23.05;43.70;100059.47;20542681;28;100462;-75
2022/08/01 02:34:19;;;;;;;;;;;;;;;23.02;43.52;100055.28;20549813;28;101212;-77
2022/08/01 02:44:31;;;;;;;;;;;;;;;23.01;43.81;100051.00;20547388;28;105140;-76
2022/08/01 02:54:32;;;;;;;;;;;;;;;22.98;43.85;100052.09;20549483;28;98343;-74
2022/08/01 03:04:33;;;;;;;;;;;;;;;22.98;44.01;100049.44;20535767;28;99076;-72
2022/08/01 03:14:35;;;;;;;;;;;;;;;22.98;44.13;100046.81;20520602;28;100292;-72
2022/08/01 03:24:37;;;;;;;;;;;;;;;22.98;43.95;100038.06;20543404;28;97878;-72
2022/08/01 03:34:38;;;;;;;;;;;;;;;22.99;43.95;100039.75;20530662;28;99003;-72
2022/08/01 03:44:39;;;;;;;;;;;;;;;22.97;44.00;100036.38;20543316;28;98981;-72
2022/08/01 03:54:46;;;;;;;;;;;;;;;22.97;44.27;100041.66;20527805;28;101440;-72
2022/08/01 04:04:46;;;;;;;;;;;;;;;22.96;44.35;100043.50;20534808;28;98198;-71
2022/08/01 04:14:47;;;;;;;;;;;;;;;22.95;44.14;100052.38;20539034;28;97615;-73
2022/08/01 04:24:49;;;;;;;;;;;;;;;22.97;44.45;100052.22;20546005;28;98626;-72
2022/08/01 04:34:50;;;;;;;;;;;;;;;22.95;44.51;100059.44;20543395;28;100860;-71
2022/08/01 04:44:50;;;;;;;;;;;;;;;22.96;44.29;100069.91;20543240;28;98340;-72
2022/08/01 04:54:50;;;;;;;;;;;;;;;22.95;44.29;100067.38;20547733;28;97874;-73
2022/08/01 05:04:51;;;;;;;;;;;;;;;22.96;44.48;100072.53;20537243;28;98876;-72
2022/08/01 05:14:51;;;;;;;;;;;;;;;22.97;44.64;100068.94;20536895;28;101125;-72
2022/08/01 05:24:52;;;;;;;;;;;;;;;22.99;44.65;100068.78;20541757;28;101929;-73
2022/08/01 05:34:52;;;;;;;;;;;;;;;23.02;44.72;100064.06;20556078;28;97959;-72
2022/08/01 05:44:53;;;;;;;;;;;;;;;23.02;44.22;100069.34;20565393;28;101476;-73
2022/08/01 05:54:53;;;;;;;;;;;;;;;23.02;44.62;100066.69;20541390;28;98468;-72
2022/08/01 06:04:53;;;;;;;;;;;;;;;23.08;44.91;100059.19;20562159;28;99089;-73
2022/08/01 06:14:53;;;;;;;;;;;;;;;23.13;44.91;100073.66;20581675;28;98290;-72
2022/08/01 06:24:54;;;;;;;;;;;;;;;23.22;45.15;100079.94;20573994;28;97884;-73
2022/08/01 06:34:54;;;;;;;;;;;;;;;23.26;44.86;100076.03;20557402;28;100396;-74
2022/08/01 06:44:55;;;;;;;;;;;;;;;23.33;44.54;100084.25;20584307;28;98106;-69
2022/08/01 06:54:56;;;;;;;;;;;;;;;23.38;44.48;100091.75;20562365;28;100426;-70
2022/08/01 07:04:59;;;;;;;;;;;;;;;23.43;44.24;100082.41;20561399;28;100781;-74
2022/08/01 07:15:00;;;;;;;;;;;;;;;23.52;44.16;100085.19;20539900;28;101600;-68
2022/08/01 07:25:00;;;;;;;;;;;;;;;23.63;44.67;100069.16;20552007;28;98825;-71
2022/08/01 07:35:02;;;;;;;;;;;;;;;23.69;44.31;100076.50;20569533;28;98140;-70
2022/08/01 07:45:03;;;;;;;;;;;;;;;23.76;44.23;100079.44;20571082;28;99414;-70
2022/08/01 07:55:04;;;;;;;;;;;;;;;23.81;44.01;100077.19;20560788;28;101335;-72
2022/08/01 08:05:06;;;;;;;;;;;;;;;23.85;44.04;100065.34;20571450;28;98637;-72
2022/08/01 08:15:06;;;;;;;;;;;;;;;23.90;43.68;100068.41;20574960;28;97889;-71
2022/08/01 08:25:09;;;;;;;;;;;;;;;23.96;43.47;100067.00;20559861;28;100886;-71
2022/08/01 08:35:09;;;;;;;;;;;;;;;24.01;43.10;100077.16;20566011;28;101129;-71
2022/08/01 08:45:10;;;;;;;;;;;;;;;24.03;42.70;100086.59;20563973;28;98452;-71
2022/08/01 08:55:14;;;;;;;;;;;;;;;24.06;42.37;100099.56;20569195;28;98470;-70
2022/08/01 09:05:14;;;;;;;;;;;;;;;24.08;42.38;100105.53;20555612;28;99444;-71
2022/08/01 09:15:15;;;;;;;;;;;;;;;24.11;41.70;100113.16;20589757;28;98131;-70
2022/08/01 09:25:15;;;;;;;;;;;;;;;24.14;42.11;100112.03;20577228;28;98598;-70
2022/08/01 09:35:22;;;;;;;;;;;;;;;24.18;41.91;100112.59;20585969;28;98490;-70
2022/08/01 09:45:32;;;;;;;;;;;;;;;24.19;41.83;100109.78;20576860;28;98694;-71
2022/08/01 09:55:33;;;;;;;;;;;;;;;24.21;41.81;100099.91;20572916;28;102071;-71
2022/08/01 10:05:34;;;;;;;;;;;;;;;24.26;41.80;100100.28;20578214;28;98917;-71
2022/08/01 10:15:35;;;;;;;;;;;;;;;24.30;41.72;100106.13;20580038;28;103520;-71
2022/08/01 10:25:40;;;;;;;;;;;;;;;24.34;41.94;100104.88;20578547;28;97995;-70
2022/08/01 10:35:40;;;;;;;;;;;;;;;24.38;41.94;100097.47;20576197;28;101002;-71
2022/08/01 10:45:42;;;;;;;;;;;;;;;24.41;41.77;100091.88;20582950;28;98023;-70
2022/08/01 10:55:46;;;;;;;;;;;;;;;24.44;41.69;100089.75;20583915;28;97728;-70
2022/08/01 11:05:51;;;;;;;;;;;;;;;24.47;41.82;100080.69;20574956;28;98392;-70
2022/08/01 11:16:11;;;;;;;;;;;;;;;24.53;41.73;100076.63;20581795;28;97899;-71
2022/08/01 11:26:12;;;;;;;;;;;;;;;24.56;42.03;100069.22;20573545;28;98264;-70
2022/08/01 11:36:13;;;;;;;;;;;;;;;24.62;42.06;100062.50;20580318;28;98438;-70
2022/08/01 11:46:14;;;;;;;;;;;;;;;24.69;42.63;100053.00;20552608;28;100884;-68
2022/08/01 11:56:15;;;;;;;;;;;;;;;24.80;43.00;100053.78;20544882;28;100786;-72
2022/08/01 12:06:26;;;;;;;;;;;;;;;24.90;42.97;100050.06;20556223;28;98642;-72
2022/08/01 12:16:26;;;;;;;;;;;;;;;24.99;42.75;100053.63;20562740;28;99131;-73
2022/08/01 12:26:47;;;;;;;;;;;;;;;25.12;42.80;100052.38;20572015;28;98686;-73
2022/08/01 12:36:47;;;;;;;;;;;;;;;25.22;42.68;100050.50;20569434;28;102096;-72
2022/08/01 12:46:48;;;;;;;;;;;;;;;25.35;43.21;100032.38;20554072;28;101544;-71
2022/08/01 12:56:48;;;;;;;;;;;;;;;25.45;42.89;100029.66;20558657;28;101023;-71
2022/08/01 13:06:52;;;;;;;;;;;;;;;25.55;42.82;100026.91;20545351;28;100606;-71
2022/08/01 13:16:52;;;;;;;;;;;;;;;25.61;42.40;100018.31;20555240;28;98753;-74
2022/08/01 13:27:00;;;;;;;;;;;;;;;25.68;42.70;100019.34;20555079;28;101258;-71
2022/08/01 13:37:04;;;;;;;;;;;;;;;25.73;42.28;100016.22;20547397;28;98489;-72
2022/08/01 13:47:04;;;;;;;;;;;;;;;25.80;42.54;100009.28;20549800;28;98636;-72
2022/08/01 13:57:05;;;;;;;;;;;;;;;25.85;42.27;100004.34;20556131;28;98707;-71
2022/08/01 14:07:05;;;;;;;;;;;;;;;25.94;42.37;100002.56;20558493;28;100273;-73
2022/08/01 14:17:05;;;;;;;;;;;;;;;26.00;42.46;100001.06;20589907;28;98447;-71
2022/08/01 14:27:06;;;;;;;;;;;;;;;26.06;42.85;99997.78;20588991;28;101088;-72
2022/08/01 14:37:06;;;;;;;;;;;;;;;26.13;42.17;100001.47;20583308;28;98125;-71
2022/08/01 14:47:06;;;;;;;;;;;;;;;26.17;41.98;100005.50;20571814;28;98596;-72
2022/08/01 14:57:06;;;;;;;;;;;;;;;26.20;41.90;100007.00;20566279;28;100960;-72
2022/08/01 15:07:07;;;;;;;;;;;;;;;26.24;42.20;100007.50;20564663;28;101447;-72
2022/08/01 15:17:07;;;;;;;;;;;;;;;26.25;42.34;100002.03;20561926;28;97961;-72
2022/08/01 15:27:08;;;;;;;;;;;;;;;26.29;42.53;100002.53;20555948;28;101108;-70
2022/08/01 15:37:09;;;;;;;;;;;;;;;26.34;42.82;100005.53;20548254;28;98839;-71
2022/08/01 15:47:10;;;;;;;;;;;;;;;26.34;42.53;100014.34;20539046;28;100623;-72
2022/08/01 15:57:11;;;;;;;;;;;;;;;26.33;42.33;100009.16;20577438;28;97768;-71
2022/08/01 16:07:11;;;;;;;;;;;;;;;26.30;42.26;100012.16;20563901;28;101599;-72
2022/08/01 16:17:12;;;;;;;;;;;;;;;26.31;43.07;100016.47;20556653;28;98086;-72
2022/08/01 16:27:12;;;;;;;;;;;;;;;26.27;42.44;100017.78;20560530;28;98324;-70
2022/08/01 16:37:13;;;;;;;;;;;;;;;26.26;42.53;100014.31;20560341;28;98534;-69
2022/08/01 16:47:13;;;;;;;;;;;;;;;26.25;42.11;100017.94;20566294;28;101232;-69
2022/08/01 16:57:13;;;;;;;;;;;;;;;26.25;42.41;100022.44;20550565;28;99870;-70
2022/08/01 17:07:14;;;;;;;;;;;;;;;26.24;42.93;100024.25;20536422;28;101561;-71
2022/08/01 17:17:14;;;;;;;;;;;;;;;26.23;42.90;100025.22;20535133;28;99460;-75
2022/08/01 17:27:14;;;;;;;;;;;;;;;26.24;42.93;100028.72;20553267;28;98094;-76
2022/08/01 17:37:16;;;;;;;;;;;;;;;26.23;43.04;100043.00;20588707;28;98863;-79
2022/08/01 17:47:16;;;;;;;;;;;;;;;26.24;43.08;100048.13;20578170;28;98528;-79
2022/08/01 17:57:17;;;;;;;;;;;;;;;26.23;43.17;100050.94;20605178;28;98223;-82
2022/08/01 18:07:18;;;;;;;;;;;;;;;26.20;42.37;100052.09;20608611;28;99002;-76
2022/08/01 18:17:18;;;;;;;;;;;;;;;26.18;41.28;100060.22;20567816;28;97961;-75
2022/08/01 18:27:21;;;;;;;;;;;;;;;26.16;40.99;100066.69;20555207;28;102071;-76
2022/08/01 18:37:21;;;;;;;;;;;;;;;26.15;41.52;100079.13;20569835;28;98252;-76
2022/08/01 18:47:22;;;;;;;;;;;;;;;26.14;41.66;100087.25;20594739;28;97831;-80
2022/08/01 18:57:23;;;;;;;;;;;;;;;26.11;41.64;100098.16;20577365;28;100807;-79
2022/08/01 19:07:23;;;;;;;;;;;;;;;26.10;41.74;100107.09;20588815;28;98175;-79
2022/08/01 19:17:25;;;;;;;;;;;;;;;26.01;41.51;100114.16;20593647;28;98447;-77
2022/08/01 19:27:29;;;;;;;;;;;;;;;25.99;41.81;100129.44;20594825;28;100483;-79
2022/08/01 19:37:29;;;;;;;;;;;;;;;25.93;42.01;100138.84;20632215;28;97138;-77
2022/08/01 19:47:31;;;;;;;;;;;;;;;25.85;42.08;100129.00;20589658;28;97555;-80
2022/08/01 19:57:32;;;;;;;;;;;;;;;25.82;42.14;100131.16;20596996;28;101009;-76
2022/08/01 20:07:35;;;;;;;;;;;;;;;25.78;42.33;100143.03;20586634;28;100811;-76
2022/08/01 20:17:37;;;;;;;;;;;;;;;25.74;42.50;100131.91;20580870;28;100593;-78
2022/08/01 20:27:38;;;;;;;;;;;;;;;25.72;42.41;100141.84;20587136;28;97892;-77
2022/08/01 20:37:41;;;;;;;;;;;;;;;25.67;42.63;100142.31;20588788;28;98478;-77
2022/08/01 20:47:42;;;;;;;;;;;;;;;25.66;42.54;100147.75;20596693;28;100685;-76
2022/08/01 20:57:46;;;;;;;;;;;;;;;25.64;42.72;100147.91;20604071;28;98644;-75
2022/08/01 21:07:51;;;;;;;;;;;;;;;25.61;42.68;100160.66;20590886;28;97326;-76
2022/08/01 21:17:56;;;;;;;;;;;;;;;25.54;43.38;100166.56;20589115;28;98541;-77
2022/08/01 21:27:58;;;;;;;;;;;;;;;25.54;43.42;100169.22;20586587;28;98600;-76
2022/08/01 21:38:00;;;;;;;;;;;;;;;25.49;44.05;100168.84;20579815;28;100766;-76
2022/08/01 21:48:01;;;;;;;;;;;;;;;25.40;44.94;100164.44;20585407;28;97274;-77
2022/08/01 21:58:12;;;;;;;;;;;;;;;25.34;44.96;100159.72;20570116;28;97383;-76
2022/08/01 22:08:15;;;;;;;;;;;;;;;25.34;44.45;100162.38;20565520;28;97952;-75
2022/08/01 22:18:16;;;;;;;;;;;;;;;25.33;44.64;100166.00;20575868;28;98254;-75
2022/08/01 22:28:18;;;;;;;;;;;;;;;25.24;44.69;100178.34;20576874;28;101054;-75
2022/08/01 22:38:19;;;;;;;;;;;;;;;25.20;45.07;100182.28;20560280;28;98401;-77
2022/08/01 22:48:33;;;;;;;;;;;;;;;25.22;45.66;100185.63;20566776;28;98560;-75
2022/08/01 22:58:33;;;;;;;;;;;;;;;25.18;45.64;100177.16;20575500;28;100230;-76
2022/08/01 23:08:34;;;;;;;;;;;;;;;25.15;45.73;100182.75;20566172;28;98309;-76
2022/08/01 23:18:35;;;;;;;;;;;;;;;25.09;45.75;100192.09;20573849;28;98682;-75
2022/08/01 23:28:35;;;;;;;;;;;;;;;25.10;45.63;100191.13;20570669;28;100129;-75
2022/08/01 23:38:35;;;;;;;;;;;;;;;25.15;45.49;100185.38;20566211;28;100787;-75
2022/08/01 23:48:37;;;;;;;;;;;;;;;25.12;45.53;100188.34;20572310;28;98526;-75
2022/08/01 23:58:37;;;;;;;;;;;;;;;25.09;45.30;100186.81;20550978;28;100633;-75
